Time;durP1;ratioP1;P1;durP2;ratioP2;P2;SDS_P1;SDS_P2;PMS_P1;PMS_P2;Temp;Humidity;BMP_temperature;BMP_pressure;BME280_temperature;BME280_humidity;BME280_pressure;Samples;Min_cycle;Max_cycle;Signal;HPM_P1;HPM_P2
2022/08/07 00:04:11;;;;;;;1.42;0.60;;;14.40;99.90;;;;;;20696150;28;20049;-39
2022/08/07 00:14:12;;;;;;;1.10;0.60;;;14.40;99.90;;;;;;20677099;28;20474;-38
2022/08/07 00:24:13;;;;;;;1.23;0.52;;;14.30;99.90;;;;;;20668783;28;21126;-38
2022/08/07 00:34:14;;;;;;;1.63;0.60;;;14.30;99.90;;;;;;20680390;28;20633;-38
2022/08/07 00:44:15;;;;;;;2.28;1.05;;;14.20;99.90;;;;;;20662886;28;20054;-38
2022/08/07 00:54:16;;;;;;;1.50;0.60;;;14.10;99.90;;;;;;20690166;28;20474;-38
2022/08/07 01:04:17;;;;;;;1.55;0.52;;;14.00;99.90;;;;;;20717462;28;20042;-38
2022/08/07 01:14:20;;;;;;;2.05;0.55;;;13.80;99.90;;;;;;20732327;28;20045;-38
2022/08/07 01:24:22;;;;;;;2.20;0.95;;;13.80;99.90;;;;;;20752873;28;21837;-38
2022/08/07 01:34:23;;;;;;;3.50;0.80;;;13.70;99.90;;;;;;20755232;28;20103;-38
2022/08/07 01:44:25;;;;;;;1.25;0.60;;;13.90;99.90;;;;;;20765632;28;20053;-38
2022/08/07 01:54:28;;;;;;;1.48;0.60;;;13.80;99.90;;;;;;20770289;28;20083;-38
2022/08/07 02:04:37;;;;;;;2.20;0.80;;;13.70;99.90;;;;;;20749614;28;20050;-38
2022/08/07 02:14:38;;;;;;;3.00;0.95;;;13.60;99.90;;;;;;20688820;28;21780;-38
2022/08/07 02:24:42;;;;;;;1.90;0.80;;;13.50;99.90;;;;;;20672059;28;20773;-38
2022/08/07 02:44:50;;;;;;;4.18;1.20;;;13.30;99.90;;;;;;20640602;28;20064;-38
2022/08/07 02:54:52;;;;;;;3.25;1.42;;;13.20;99.90;;;;;;20653333;28;20432;-38
2022/08/07 03:04:55;;;;;;;2.08;0.93;;;13.20;99.90;;;;;;20646921;28;20050;-38
2022/08/07 03:14:56;;;;;;;1.83;1.00;;;13.20;99.90;;;;;;20657446;28;20112;-38
2022/08/07 03:24:58;;;;;;;3.67;1.60;;;13.20;99.90;;;;;;20653720;28;20577;-38
2022/08/07 03:35:03;;;;;;;2.03;0.95;;;13.20;99.90;;;;;;20627259;28;20535;-38
2022/08/07 03:45:05;;;;;;;2.78;1.27;;;13.10;99.90;;;;;;20576805;28;20561;-38
2022/08/07 03:55:06;;;;;;;5.28;1.15;;;13.00;99.90;;;;;;20561037;28;20046;-38
2022/08/07 04:05:08;;;;;;;2.60;1.20;;;12.90;99.90;;;;;;20566690;28;20043;-38
2022/08/07 04:15:10;;;;;;;3.35;1.50;;;13.00;99.90;;;;;;20580073;28;20034;-38
2022/08/07 04:25:12;;;;;;;3.33;1.40;;;12.90;99.90;;;;;;20592924;28;20047;-38
2022/08/07 04:35:13;;;;;;;2.88;1.50;;;12.90;99.90;;;;;;20585019;28;20055;-39
2022/08/07 04:45:14;;;;;;;3.25;1.10;;;12.90;99.90;;;;;;20599353;28;20212;-38
2022/08/07 04:55:39;;;;;;;3.13;1.20;;;12.90;99.90;;;;;;20601206;28;20030;-39
2022/08/07 05:06:03;;;;;;;1.83;0.98;;;13.00;99.90;;;;;;20612373;28;21851;-39
2022/08/07 05:16:11;;;;;;;2.42;1.02;;;13.00;99.90;;;;;;20568650;28;20542;-38
2022/08/07 05:26:16;;;;;;;3.47;0.85;;;13.00;99.90;;;;;;20580922;28;20050;-38
2022/08/07 05:36:19;;;;;;;1.13;0.73;;;13.50;99.90;;;;;;20569182;28;20129;-39
2022/08/07 05:46:21;;;;;;;1.25;0.52;;;14.00;99.90;;;;;;20571201;28;20042;-39
2022/08/07 05:56:23;;;;;;;1.02;0.52;;;14.40;99.90;;;;;;20550250;28;20117;-39
2022/08/07 06:06:25;;;;;;;3.00;0.50;;;15.10;99.90;;;;;;20571490;28;20132;-39
2022/08/07 06:16:32;;;;;;;2.17;0.57;;;15.40;99.90;;;;;;20570816;28;20449;-39
2022/08/07 06:26:33;;;;;;;1.58;0.68;;;15.90;99.90;;;;;;20559234;28;20061;-39
2022/08/07 06:36:34;;;;;;;6.72;1.33;;;16.30;99.90;;;;;;20549807;28;21097;-39
2022/08/07 06:46:35;;;;;;;1.40;0.55;;;16.80;99.90;;;;;;20578624;28;20121;-39
2022/08/07 06:56:42;;;;;;;1.83;0.52;;;17.30;99.90;;;;;;20557584;28;20308;-39
2022/08/07 07:06:46;;;;;;;1.60;0.60;;;17.30;99.90;;;;;;20557465;28;20580;-38
2022/08/07 07:16:51;;;;;;;1.23;0.52;;;17.60;99.90;;;;;;20547091;28;20112;-38
2022/08/07 07:26:55;;;;;;;0.98;0.43;;;17.60;99.90;;;;;;20551296;28;20050;-39
2022/08/07 07:36:59;;;;;;;2.78;0.70;;;17.70;99.90;;;;;;20547109;28;20137;-39
2022/08/07 07:47:02;;;;;;;0.90;0.30;;;17.70;99.90;;;;;;20539065;28;20458;-39
2022/08/07 07:57:05;;;;;;;1.02;0.47;;;18.00;99.90;;;;;;20546699;28;20390;-39
2022/08/07 08:07:07;;;;;;;1.08;0.40;;;18.10;99.90;;;;;;20555315;28;20134;-39
2022/08/07 08:17:12;;;;;;;1.00;0.40;;;18.10;99.90;;;;;;20550783;28;20294;-39
2022/08/07 08:27:15;;;;;;;0.73;0.30;;;18.20;99.90;;;;;;20559003;28;20622;-39
2022/08/07 08:37:18;;;;;;;0.73;0.35;;;18.50;99.90;;;;;;20546980;28;20060;-39
2022/08/07 08:47:41;;;;;;;1.48;0.68;;;18.80;99.90;;;;;;20525299;28;20109;-39
2022/08/07 08:58:02;;;;;;;1.13;0.60;;;19.30;99.90;;;;;;20533540;28;20786;-39
2022/08/07 09:08:30;;;;;;;1.52;0.90;;;19.50;99.90;;;;;;20549286;28;20191;-39
2022/08/07 09:19:08;;;;;;;1.13;0.47;;;20.00;99.90;;;;;;20557351;28;21850;-39
2022/08/07 09:29:41;;;;;;;4.75;0.70;;;20.20;99.90;;;;;;20542002;28;20676;-39
2022/08/07 09:39:50;;;;;;;1.92;0.65;;;20.80;99.90;;;;;;20546903;28;20683;-39
2022/08/07 09:50:04;;;;;;;1.55;0.73;;;20.70;99.90;;;;;;20530290;28;20046;-39
2022/08/07 10:00:12;;;;;;;2.20;0.68;;;20.90;99.90;;;;;;20540181;28;20074;-39
2022/08/07 10:10:50;;;;;;;1.58;0.52;;;21.30;99.90;;;;;;20531448;28;20653;-39
2022/08/07 10:21:13;;;;;;;0.70;0.30;;;21.50;99.90;;;;;;20553611;28;21858;-39
2022/08/07 10:31:33;;;;;;;1.67;0.40;;;21.80;99.90;;;;;;20564579;28;20455;-39
2022/08/07 10:41:39;;;;;;;0.70;0.40;;;22.10;99.90;;;;;;20580092;28;20080;-39
2022/08/07 10:51:46;;;;;;;1.50;0.50;;;22.00;99.90;;;;;;20584296;28;20153;-39
2022/08/07 11:02:08;;;;;;;0.43;0.27;;;22.40;99.90;;;;;;20551391;28;20565;-39
2022/08/07 11:12:21;;;;;;;1.17;0.22;;;22.70;97.60;;;;;;20541034;28;20062;-39
2022/08/07 11:22:31;;;;;;;1.23;0.50;;;22.60;95.70;;;;;;20554845;28;20932;-39
2022/08/07 11:32:55;;;;;;;0.77;0.43;;;23.40;96.70;;;;;;20541519;28;20408;-39
2022/08/07 11:43:10;;;;;;;7.63;0.73;;;24.00;96.70;;;;;;20560284;28;20905;-39
2022/08/07 11:53:26;;;;;;;1.77;0.40;;;24.10;94.80;;;;;;20536251;28;20035;-39
2022/08/07 12:03:40;;;;;;;1.63;0.47;;;24.60;95.20;;;;;;20540456;28;20207;-39
2022/08/07 12:13:52;;;;;;;1.10;0.70;;;24.40;96.30;;;;;;20559565;28;21940;-39
2022/08/07 12:24:14;;;;;;;1.67;0.70;;;24.40;96.10;;;;;;20549772;28;20034;-39
2022/08/07 12:34:18;;;;;;;1.42;0.73;;;25.00;95.60;;;;;;20526096;28;20470;-39
2022/08/07 12:44:23;;;;;;;1.95;0.60;;;25.30;95.30;;;;;;20546177;28;20069;-39
2022/08/07 12:54:31;;;;;;;1.45;0.95;;;25.10;94.50;;;;;;20534350;28;20392;-39
2022/08/07 13:04:41;;;;;;;;;;;25.20;93.80;;;;;;20563506;28;20477;-39
2022/08/07 13:15:16;;;;;;;1.35;0.50;;;25.90;94.30;;;;;;20565520;28;20936;-39
2022/08/07 13:25:23;;;;;;;1.48;0.60;;;26.50;93.70;;;;;;20582640;28;20445;-39
2022/08/07 13:35:48;;;;;;;1.45;0.70;;;26.00;94.40;;;;;;20585796;28;20323;-39
2022/08/07 13:46:00;;;;;;;1.65;0.98;;;25.40;95.90;;;;;;20600859;28;20895;-39
2022/08/07 13:56:03;;;;;;;1.02;0.47;;;25.00;96.60;;;;;;20611510;28;20030;-39
2022/08/07 14:06:06;;;;;;;1.05;0.52;;;24.20;97.80;;;;;;20595435;28;20117;-39
2022/08/07 14:16:13;;;;;;;2.65;0.68;;;23.50;97.60;;;;;;20603509;28;20457;-39
2022/08/07 14:26:20;;;;;;;1.47;1.07;;;23.30;97.00;;;;;;20593247;28;20140;-39
2022/08/07 14:36:22;;;;;;;;;;;24.30;96.70;;;;;;20607268;28;20093;-39
2022/08/07 14:46:24;;;;;;;1.42;0.77;;;24.10;96.70;;;;;;20608727;28;19972;-39
2022/08/07 14:56:28;;;;;;;1.63;0.35;;;24.20;96.50;;;;;;20613216;28;20117;-39
2022/08/07 15:06:32;;;;;;;1.75;0.88;;;24.50;96.20;;;;;;20616800;28;20664;-39
2022/08/07 15:16:38;;;;;;;1.10;0.43;;;24.70;95.50;;;;;;20615807;28;20038;-39
2022/08/07 15:26:45;;;;;;;0.93;0.30;;;24.40;96.20;;;;;;20565878;28;20882;-39
2022/08/07 15:36:48;;;;;;;0.80;0.30;;;24.30;96.10;;;;;;20555865;28;20046;-39
2022/08/07 15:47:01;;;;;;;1.73;0.70;;;24.20;95.90;;;;;;20556804;28;20054;-39
2022/08/07 15:57:05;;;;;;;1.70;0.32;;;24.00;95.90;;;;;;20574426;28;20050;-39
2022/08/07 16:07:11;;;;;;;1.48;0.55;;;23.60;95.80;;;;;;20553629;28;20046;-39
2022/08/07 16:17:18;;;;;;;1.13;0.30;;;23.20;95.80;;;;;;20568930;28;20111;-38
2022/08/07 16:27:32;;;;;;;1.50;0.33;;;23.10;96.20;;;;;;20552415;28;20468;-38
2022/08/07 16:37:45;;;;;;;0.90;0.45;;;23.00;96.30;;;;;;20540275;28;20894;-38
2022/08/07 16:48:07;;;;;;;1.67;0.85;;;22.80;97.20;;;;;;20551007;28;20822;-38
2022/08/07 16:58:41;;;;;;;1.08;0.50;;;22.50;99.90;;;;;;20551424;28;20490;-38
2022/08/07 17:08:52;;;;;;;1.27;0.57;;;22.00;99.90;;;;;;20560380;28;20852;-38
2022/08/07 17:18:56;;;;;;;0.95;0.55;;;21.50;99.90;;;;;;20558979;28;20109;-38
2022/08/07 17:28:57;;;;;;;0.93;0.40;;;21.10;99.90;;;;;;20577097;28;20410;-38
2022/08/07 17:39:14;;;;;;;2.05;0.70;;;21.00;99.90;;;;;;20553729;28;20473;-39
2022/08/07 17:49:23;;;;;;;1.13;0.50;;;20.90;99.90;;;;;;20552907;28;20446;-39
2022/08/07 17:59:40;;;;;;;1.42;0.50;;;20.80;99.90;;;;;;20560919;28;20889;-39
2022/08/07 18:09:47;;;;;;;2.13;0.77;;;20.70;99.90;;;;;;20584049;28;20896;-39
2022/08/07 18:19:57;;;;;;;3.28;0.65;;;20.50;99.90;;;;;;20538822;28;20101;-39
2022/08/07 18:30:05;;;;;;;1.45;0.40;;;20.30;99.90;;;;;;20554872;28;20047;-39
2022/08/07 18:40:23;;;;;;;1.73;0.50;;;20.20;99.90;;;;;;20539783;28;20093;-39
2022/08/07 18:50:30;;;;;;;2.13;0.93;;;20.00;99.90;;;;;;20542178;28;20884;-39
2022/08/07 19:00:46;;;;;;;1.30;0.63;;;19.90;99.90;;;;;;20549250;28;20125;-39
2022/08/07 19:11:05;;;;;;;1.75;0.50;;;19.70;99.90;;;;;;20533110;28;21811;-38
2022/08/07 19:21:25;;;;;;;0.93;0.50;;;19.60;99.90;;;;;;20563681;28;20046;-39
2022/08/07 19:31:29;;;;;;;1.67;0.63;;;19.40;99.90;;;;;;20536390;28;20747;-39
2022/08/07 19:41:44;;;;;;;1.67;0.70;;;19.10;99.90;;;;;;20529968;28;20075;-39
2022/08/07 19:51:46;;;;;;;1.30;0.55;;;18.90;99.90;;;;;;20532220;28;20818;-39
2022/08/07 20:01:48;;;;;;;1.25;0.50;;;18.70;99.90;;;;;;20536474;28;20046;-39
2022/08/07 20:11:53;;;;;;;1.23;0.60;;;18.50;99.90;;;;;;20520014;28;20149;-39
2022/08/07 20:21:55;;;;;;;1.70;1.02;;;18.40;99.90;;;;;;20521511;28;20656;-39
2022/08/07 20:31:59;;;;;;;1.98;0.82;;;18.20;99.90;;;;;;20519787;28;20074;-39
2022/08/07 20:42:03;;;;;;;1.67;0.85;;;18.20;99.90;;;;;;20520986;28;20104;-38
2022/08/07 20:52:04;;;;;;;1.52;0.75;;;17.90;99.90;;;;;;20539726;28;20117;-39
2022/08/07 21:02:56;;;;;;;1.80;0.80;;;17.70;99.90;;;;;;20526929;28;20082;-39
2022/08/07 21:12:35;;;;;;;4.88;0.68;;;17.60;99.90;;;;;;20539122;28;20140;-39
2022/08/07 21:22:41;;;;;;;2.22;0.95;;;17.60;99.90;;;;;;20498741;28;20963;-39
2022/08/07 21:33:11;;;;;;;1.40;0.60;;;17.50;99.90;;;;;;20542438;28;20066;-39
2022/08/07 21:43:19;;;;;;;1.30;0.45;;;17.40;99.90;;;;;;20527359;28;20058;-39
2022/08/07 21:53:29;;;;;;;;;;;17.30;99.90;;;;;;20552717;28;20043;-38
2022/08/07 22:03:44;;;;;;;0.95;0.50;;;17.20;99.90;;;;;;20540146;28;19981;-38
2022/08/07 22:13:50;;;;;;;0.80;0.30;;;17.10;99.90;;;;;;20549106;28;20267;-39
2022/08/07 22:23:59;;;;;;;1.05;0.40;;;17.00;99.90;;;;;;20548191;28;20038;-39
2022/08/07 22:34:29;;;;;;;0.98;0.55;;;16.90;99.90;;;;;;20533257;28;20093;-39
2022/08/07 22:44:34;;;;;;;1.08;0.45;;;16.80;99.90;;;;;;20520706;28;20378;-38
2022/08/07 22:54:56;;;;;;;2.15;0.75;;;16.70;99.90;;;;;;20523149;28;20865;-39
2022/08/07 23:05:14;;;;;;;0.77;0.40;;;16.70;99.90;;;;;;20548505;28;20193;-38
2022/08/07 23:15:41;;;;;;;1.02;0.30;;;16.50;99.90;;;;;;20550310;28;20125;-38
2022/08/07 23:26:17;;;;;;;1.00;0.40;;;16.60;99.90;;;;;;20533063;28;20891;-39
2022/08/07 23:36:45;;;;;;;0.88;0.52;;;16.40;99.90;;;;;;20521031;28;20057;-38
2022/08/07 23:47:01;;;;;;;0.73;0.38;;;16.20;99.90;;;;;;20510000;28;20971;-39
2022/08/07 23:57:16;;;;;;;1.00;0.50;;;16.20;99.90;;;;;;20514148;28;20081;-38
